North Branch, Minnesota
Current Conditions -  °F | °C
As of 11:34 AM on Tuesday 21 Oct 2014 (Local Time) from KROS Reporting Station
Clear Clear  
Wind Chill: 47°   Ceiling: Unl
Heat Index: 50°   Visibility: 10mi
Dew Point: 38°   Wind: 7mph
Humidity: 65%   Direction: 100°E
Pressure: 30.22"   Gusts: NA
Location:  45.51°N, 92.98°W
Report Text: KROS 211634Z AUTO 10006KT 10SM CLR 10/04 A3022 RMK AO2 T00980035
Loading
Personal Weather Stations






























Interactive Weather Map
Tropical Storm Tracking
New forecast layout! Learn more

10-Day Weather Forecast

Advertisements
Track Severe Weather on mobile